createdAt,value
2019-05-19T00:02:16.792Z,66.06
2019-05-19T00:04:48.356Z,66.19
2019-05-19T00:07:19.968Z,66.29
2019-05-19T00:09:51.481Z,65.94
2019-05-19T00:12:24.580Z,65.88
2019-05-19T00:14:56.306Z,65.74
2019-05-19T00:17:28.101Z,65.88
2019-05-19T00:20:00.345Z,65.63
2019-05-19T00:22:33.596Z,65.57
2019-05-19T00:25:06.518Z,65.32
2019-05-19T00:27:38.152Z,64.79
2019-05-19T00:30:11.308Z,64.53
2019-05-19T00:32:43.196Z,64.36
2019-05-19T00:35:14.884Z,64.29
2019-05-19T00:37:46.832Z,64.34
2019-05-19T00:40:18.636Z,64.68
2019-05-19T00:42:50.417Z,64.52
2019-05-19T00:45:22.434Z,64.22
2019-05-19T00:47:53.958Z,63.90
2019-05-19T00:50:25.758Z,63.89
2019-05-19T00:52:57.422Z,63.60
2019-05-19T00:55:31.178Z,63.75
2019-05-19T00:58:03.974Z,64.09
2019-05-19T01:00:35.559Z,64.28
2019-05-19T01:03:07.403Z,63.97
2019-05-19T01:05:39.106Z,64.00
2019-05-19T01:08:10.970Z,63.95
2019-05-19T01:10:42.914Z,64.16
2019-05-19T01:13:14.734Z,64.29
2019-05-19T01:15:46.556Z,64.62
2019-05-19T01:18:18.443Z,64.99
2019-05-19T01:20:50.357Z,65.22
2019-05-19T01:23:24.633Z,65.37
2019-05-19T01:25:56.523Z,65.55
2019-05-19T01:28:28.359Z,65.51
2019-05-19T01:31:00.144Z,65.20
2019-05-19T01:33:33.951Z,65.33
2019-05-19T01:36:05.828Z,65.32
2019-05-19T01:38:37.719Z,65.98
2019-05-19T01:41:09.485Z,65.67
2019-05-19T01:43:41.276Z,65.42
2019-05-19T01:46:13.389Z,65.29
2019-05-19T01:48:45.339Z,65.00
2019-05-19T01:51:17.078Z,65.08
2019-05-19T01:53:48.845Z,65.57
2019-05-19T01:56:20.862Z,65.54
2019-05-19T01:58:52.590Z,65.36
2019-05-19T02:01:24.384Z,65.25
2019-05-19T02:03:56.415Z,64.48
2019-05-19T02:06:28.218Z,64.26
2019-05-19T02:09:00.016Z,64.09
2019-05-19T02:11:31.766Z,64.06
2019-05-19T02:14:03.960Z,63.85
2019-05-19T02:16:35.776Z,64.16
2019-05-19T02:19:07.583Z,63.96
2019-05-19T02:21:39.562Z,63.31
2019-05-19T02:24:11.307Z,62.86
2019-05-19T02:26:43.069Z,62.79
2019-05-19T02:29:14.774Z,62.40
2019-05-19T02:31:47.381Z,61.71
2019-05-19T02:34:19.174Z,61.77
2019-05-19T02:36:50.977Z,61.13
2019-05-19T02:39:22.853Z,60.47
2019-05-19T02:41:54.872Z,59.63
2019-05-19T02:44:27.721Z,58.67
2019-05-19T02:47:01.039Z,58.20
2019-05-19T02:49:34.671Z,58.14
2019-05-19T02:52:07.062Z,57.18
2019-05-19T02:54:39.300Z,57.10
2019-05-19T02:57:11.706Z,55.81
2019-05-19T02:59:43.886Z,55.58
2019-05-19T03:02:16.771Z,54.94
2019-05-19T03:04:48.649Z,54.73
2019-05-19T03:07:20.351Z,54.36
2019-05-19T03:09:52.057Z,53.94
2019-05-19T03:12:23.833Z,54.18
2019-05-19T03:14:55.591Z,53.75
2019-05-19T03:17:27.273Z,53.28
2019-05-19T03:20:00.847Z,52.64
2019-05-19T03:22:35.158Z,51.70
2019-05-19T03:25:09.975Z,51.32
2019-05-19T03:27:42.131Z,51.21
2019-05-19T03:30:33.774Z,50.83
2019-05-19T03:33:10.743Z,49.94
2019-05-19T03:35:45.551Z,49.07
2019-05-19T03:38:19.377Z,48.79
2019-05-19T03:40:51.139Z,48.74
2019-05-19T03:43:22.843Z,47.93
2019-05-19T03:45:54.699Z,47.85
2019-05-19T03:48:26.581Z,48.21
2019-05-19T03:50:58.355Z,46.85
2019-05-19T03:53:31.490Z,46.10
2019-05-19T03:56:05.640Z,46.93
2019-05-19T03:58:38.026Z,46.28
2019-05-19T04:01:12.679Z,46.28
2019-05-19T04:03:45.592Z,44.93
2019-05-19T04:06:22.926Z,45.88
2019-05-19T04:08:55.629Z,44.33
2019-05-19T04:11:27.372Z,44.99
2019-05-19T04:13:59.169Z,44.85
2019-05-19T04:16:30.998Z,44.64
2019-05-19T04:19:02.806Z,44.70
2019-05-19T04:21:48.304Z,44.02
2019-05-19T04:24:07.848Z,43.49
2019-05-19T04:26:40.600Z,43.20
2019-05-19T04:29:12.305Z,43.14
2019-05-19T04:31:43.764Z,42.63
2019-05-19T04:34:15.354Z,42.30
2019-05-19T04:36:48.519Z,43.48
2019-05-19T04:39:20.071Z,43.16
2019-05-19T04:41:54.074Z,43.62
2019-05-19T04:44:26.872Z,42.28
2019-05-19T04:46:58.442Z,43.93
2019-05-19T04:49:29.996Z,43.36
2019-05-19T04:52:06.578Z,42.77
2019-05-19T04:54:34.767Z,43.18
2019-05-19T04:57:07.445Z,43.01
2019-05-19T04:59:38.943Z,43.33
2019-05-19T05:02:10.776Z,43.05
2019-05-19T05:04:42.452Z,43.28
2019-05-19T05:07:14.030Z,43.07
2019-05-19T05:09:45.788Z,45.03
2019-05-19T05:12:18.872Z,45.62
2019-05-19T05:14:51.780Z,45.41
2019-05-19T05:17:25.776Z,44.70
2019-05-19T05:19:58.888Z,45.48
2019-05-19T05:22:31.784Z,44.78
2019-05-19T05:25:04.730Z,44.50
2019-05-19T05:27:37.600Z,45.37
2019-05-19T05:30:09.989Z,44.83
2019-05-19T05:32:42.013Z,45.59
2019-05-19T05:35:17.616Z,45.50
2019-05-19T05:37:49.151Z,45.99
2019-05-19T05:40:21.693Z,45.59
2019-05-19T05:42:53.499Z,46.22
2019-05-19T05:45:25.168Z,44.51
2019-05-19T05:47:58.535Z,43.25
2019-05-19T05:50:30.053Z,43.15
2019-05-19T05:53:01.910Z,44.41
2019-05-19T05:55:34.730Z,42.82
2019-05-19T05:58:07.579Z,41.67
2019-05-19T06:00:42.192Z,41.58
2019-05-19T06:03:14.735Z,40.38
2019-05-19T06:05:48.020Z,40.18
2019-05-19T06:08:19.816Z,39.14
2019-05-19T06:14:39.420Z,39.48
2019-05-19T06:17:11.205Z,40.80
2019-05-19T06:19:42.781Z,40.91
2019-05-19T06:22:14.356Z,39.17
2019-05-19T06:24:45.987Z,39.54
2019-05-19T06:27:17.578Z,38.42
2019-05-19T06:29:50.576Z,39.22
2019-05-19T06:32:35.975Z,38.00
2019-05-19T06:35:08.223Z,38.74
2019-05-19T06:37:39.688Z,38.74
2019-05-19T06:40:12.707Z,37.92
2019-05-19T06:42:44.244Z,37.05
2019-05-19T06:45:16.124Z,39.13
2019-05-19T06:47:47.659Z,38.82
2019-05-19T06:50:19.348Z,37.89
2019-05-19T06:52:50.950Z,38.60
2019-05-19T06:55:22.576Z,39.08
2019-05-19T06:57:54.141Z,38.01
2019-05-19T07:00:27.642Z,41.01
2019-05-19T07:02:59.383Z,38.28
2019-05-19T07:05:31.483Z,39.81
2019-05-19T07:08:03.016Z,39.16
2019-05-19T07:10:34.666Z,38.78
2019-05-19T07:13:07.385Z,37.28
2019-05-19T07:15:39.090Z,37.72
2019-05-19T07:18:11.205Z,37.38
2019-05-19T07:20:42.720Z,36.56
2019-05-19T07:23:27.358Z,38.04
2019-05-19T07:25:48.140Z,39.77
2019-05-19T07:28:19.688Z,38.94
2019-05-19T07:30:51.170Z,36.93
2019-05-19T07:33:22.706Z,37.41
2019-05-19T07:35:54.222Z,37.32
2019-05-19T07:38:25.720Z,39.74
2019-05-19T07:40:58.543Z,37.43
2019-05-19T07:43:30.231Z,37.82
2019-05-19T07:46:01.872Z,38.12
2019-05-19T07:48:33.428Z,35.70
2019-05-19T07:51:04.987Z,37.84
2019-05-19T07:53:43.100Z,38.67
2019-05-19T07:56:10.723Z,36.55
2019-05-19T07:58:42.260Z,37.51
2019-05-19T08:01:14.059Z,36.43
2019-05-19T08:03:46.301Z,38.23
2019-05-19T08:06:17.910Z,38.80
2019-05-19T08:08:49.625Z,36.51
2019-05-19T08:11:21.114Z,36.71
2019-05-19T08:13:53.162Z,36.97
2019-05-19T08:16:24.691Z,36.20
2019-05-19T08:18:56.231Z,35.41
2019-05-19T08:21:27.852Z,36.00
2019-05-19T08:24:01.033Z,37.08
2019-05-19T08:26:32.542Z,36.84
2019-05-19T08:29:04.064Z,36.58
2019-05-19T08:31:37.022Z,35.57
2019-05-19T08:34:08.734Z,35.61
2019-05-19T08:36:40.326Z,36.14
2019-05-19T08:39:11.771Z,36.25
2019-05-19T08:41:43.255Z,35.12
2019-05-19T08:44:14.781Z,35.92
2019-05-19T08:46:46.260Z,35.32
2019-05-19T08:49:17.725Z,34.77
2019-05-19T08:51:50.237Z,35.13
2019-05-19T08:54:21.901Z,35.75
2019-05-19T08:56:53.348Z,35.80
2019-05-19T08:59:26.465Z,35.62
2019-05-19T09:01:59.343Z,35.98
2019-05-19T09:04:31.974Z,35.74
2019-05-19T09:07:04.050Z,36.89
2019-05-19T09:09:35.467Z,35.37
2019-05-19T09:12:06.938Z,37.41
2019-05-19T09:14:38.574Z,38.82
2019-05-19T09:17:10.064Z,35.92
2019-05-19T09:19:41.839Z,37.21
2019-05-19T09:22:13.326Z,37.94
2019-05-19T09:24:44.853Z,36.35
2019-05-19T09:27:16.354Z,37.43
2019-05-19T09:29:48.404Z,36.55
2019-05-19T09:32:19.898Z,36.97
2019-05-19T09:34:51.350Z,35.86
2019-05-19T09:37:22.892Z,38.12
2019-05-19T09:39:54.447Z,35.59
2019-05-19T09:42:27.583Z,36.13
2019-05-19T09:44:59.040Z,36.12
2019-05-19T09:47:31.446Z,36.36
2019-05-19T09:50:03.001Z,36.65
2019-05-19T09:52:34.394Z,36.32
2019-05-19T09:55:06.779Z,36.43
2019-05-19T09:57:38.321Z,35.95
2019-05-19T10:00:10.340Z,35.43
2019-05-19T10:02:41.959Z,34.76
2019-05-19T10:05:13.686Z,35.38
2019-05-19T10:07:48.348Z,35.98
2019-05-19T10:10:23.445Z,35.96
2019-05-19T10:12:54.282Z,37.20
2019-05-19T10:15:25.634Z,35.70
2019-05-19T10:17:57.540Z,35.42
2019-05-19T10:20:29.024Z,34.66
2019-05-19T10:23:00.609Z,35.16
2019-05-19T10:25:32.197Z,34.67
2019-05-19T10:28:03.692Z,34.08
2019-05-19T10:30:35.268Z,35.13
2019-05-19T10:33:06.782Z,36.54
2019-05-19T10:35:38.356Z,34.25
2019-05-19T10:38:09.898Z,34.61
2019-05-19T10:40:41.410Z,34.63
2019-05-19T10:43:15.882Z,34.74
2019-05-19T10:45:48.949Z,35.03
2019-05-19T10:48:20.552Z,35.74
2019-05-19T10:50:52.290Z,34.16
2019-05-19T10:53:24.681Z,33.97
2019-05-19T10:55:56.292Z,33.91
2019-05-19T10:58:31.961Z,35.40
2019-05-19T11:01:06.239Z,32.76
2019-05-19T11:03:38.389Z,32.57
2019-05-19T11:06:10.150Z,33.02
2019-05-19T11:08:41.685Z,33.33
2019-05-19T11:11:13.181Z,34.10
2019-05-19T11:13:44.722Z,34.12
2019-05-19T11:16:16.255Z,31.83
2019-05-19T11:18:47.748Z,32.59
2019-05-19T11:21:19.309Z,32.25
2019-05-19T11:23:50.790Z,32.74
2019-05-19T11:26:22.297Z,32.63
2019-05-19T11:28:55.893Z,32.15
2019-05-19T11:31:28.736Z,33.43
2019-05-19T11:34:00.447Z,32.95
2019-05-19T11:36:33.177Z,31.99
2019-05-19T11:39:07.020Z,34.09
2019-05-19T11:41:38.608Z,32.72
2019-05-19T11:44:10.123Z,33.64
2019-05-19T11:46:42.152Z,32.43
2019-05-19T11:49:13.683Z,31.82
2019-05-19T11:51:45.214Z,31.23
2019-05-19T11:54:16.724Z,32.42
2019-05-19T11:56:48.245Z,33.31
2019-05-19T11:59:19.777Z,33.61
2019-05-19T12:01:51.282Z,32.42
2019-05-19T12:04:22.796Z,32.97
2019-05-19T12:06:54.828Z,32.54
2019-05-19T12:09:26.314Z,32.26
2019-05-19T12:11:57.932Z,32.98
2019-05-19T12:14:29.492Z,34.55
2019-05-19T12:17:01.418Z,31.89
2019-05-19T12:19:33.485Z,32.50
2019-05-19T12:22:05.350Z,34.90
2019-05-19T12:24:36.859Z,33.93
2019-05-19T12:27:08.403Z,33.26
2019-05-19T12:29:39.901Z,32.69
2019-05-19T12:32:11.381Z,30.75
2019-05-19T12:34:45.526Z,32.87
2019-05-19T12:37:17.048Z,32.54
2019-05-19T12:39:48.505Z,32.89
2019-05-19T12:42:20.231Z,33.32
2019-05-19T12:44:53.482Z,32.70
2019-05-19T12:47:24.969Z,33.27
2019-05-19T12:49:56.480Z,33.13
2019-05-19T12:52:28.015Z,33.37
2019-05-19T12:54:59.563Z,33.75
2019-05-19T12:57:31.234Z,32.24
2019-05-19T13:00:02.784Z,33.21
2019-05-19T13:02:38.107Z,33.19
2019-05-19T13:05:10.222Z,32.79
2019-05-19T13:07:42.301Z,32.08
2019-05-19T13:10:20.217Z,32.38
2019-05-19T13:12:51.858Z,32.31
2019-05-19T13:15:23.503Z,32.50
2019-05-19T13:17:55.227Z,33.64
2019-05-19T13:20:26.867Z,31.83
2019-05-19T13:22:58.387Z,32.51
2019-05-19T13:25:29.810Z,32.03
2019-05-19T13:28:02.332Z,33.64
2019-05-19T13:30:33.868Z,31.91
2019-05-19T13:33:05.929Z,32.99
2019-05-19T13:35:38.910Z,33.58
2019-05-19T13:38:10.441Z,32.13
2019-05-19T13:40:41.945Z,32.55
2019-05-19T13:43:14.939Z,33.13
2019-05-19T13:45:46.451Z,34.41
2019-05-19T13:48:18.349Z,31.89
2019-05-19T13:50:49.864Z,32.07
2019-05-19T13:53:22.566Z,31.44
2019-05-19T13:55:54.080Z,32.07
2019-05-19T13:58:25.601Z,32.33
2019-05-19T14:00:57.103Z,31.33
2019-05-19T14:03:29.000Z,31.62
2019-05-19T14:06:00.472Z,31.35
2019-05-19T14:08:31.948Z,31.92
2019-05-19T14:11:06.005Z,31.59
2019-05-19T14:13:37.503Z,32.81
2019-05-19T14:16:08.940Z,31.86
2019-05-19T14:18:41.561Z,31.59
2019-05-19T14:21:13.076Z,31.62
2019-05-19T14:23:44.586Z,32.43
2019-05-19T14:26:17.715Z,31.85
2019-05-19T14:28:49.226Z,31.72
2019-05-19T14:31:20.722Z,31.58
2019-05-19T14:33:52.671Z,33.05
2019-05-19T14:36:24.860Z,32.75
2019-05-19T14:39:05.303Z,32.40
2019-05-19T14:41:36.754Z,32.89
2019-05-19T14:44:08.254Z,33.73
2019-05-19T14:46:39.784Z,33.31
2019-05-19T14:49:11.196Z,31.59
2019-05-19T14:51:42.702Z,32.00
2019-05-19T14:54:15.654Z,32.28
2019-05-19T14:56:47.275Z,32.66
2019-05-19T14:59:18.865Z,33.15
2019-05-19T15:01:50.366Z,32.09
2019-05-19T15:04:21.865Z,32.92
2019-05-19T15:06:53.376Z,33.68
2019-05-19T15:09:24.942Z,32.65
2019-05-19T15:11:56.449Z,33.05
2019-05-19T15:14:27.998Z,33.20
2019-05-19T15:16:59.528Z,33.01
2019-05-19T15:19:31.077Z,33.78
2019-05-19T15:22:02.574Z,33.03
2019-05-19T15:24:34.106Z,34.17
2019-05-19T15:27:05.569Z,33.65
2019-05-19T15:29:37.200Z,33.05
2019-05-19T15:32:08.707Z,32.96
2019-05-19T15:34:40.232Z,33.68
2019-05-19T15:37:12.065Z,33.20
2019-05-19T15:39:45.127Z,33.34
2019-05-19T15:42:16.635Z,34.36
2019-05-19T15:44:48.158Z,34.73
2019-05-19T15:47:20.226Z,34.59
2019-05-19T15:49:51.728Z,33.85
2019-05-19T15:52:23.254Z,34.84
2019-05-19T15:54:56.152Z,33.96
2019-05-19T15:57:28.728Z,34.31
2019-05-19T16:00:00.355Z,34.59
2019-05-19T16:02:34.549Z,34.29
2019-05-19T16:05:07.763Z,34.52
2019-05-19T16:07:39.269Z,34.69
2019-05-19T16:10:10.891Z,35.35
2019-05-19T16:12:42.375Z,35.95
2019-05-19T16:15:14.285Z,36.29
2019-05-19T16:17:45.796Z,36.45
2019-05-19T16:20:17.411Z,36.61
2019-05-19T16:22:49.026Z,36.79
2019-05-19T16:25:20.609Z,36.35
2019-05-19T16:27:52.474Z,36.95
2019-05-19T16:30:24.053Z,37.19
2019-05-19T16:32:55.562Z,36.90
2019-05-19T16:35:29.302Z,37.15
2019-05-19T16:38:02.246Z,37.45
2019-05-19T16:40:34.450Z,37.61
2019-05-19T16:43:07.879Z,37.72
2019-05-19T16:45:39.287Z,38.05
2019-05-19T16:48:10.765Z,38.38
2019-05-19T16:50:42.293Z,38.70
2019-05-19T16:53:14.423Z,38.91
2019-05-19T16:55:45.855Z,39.01
2019-05-19T16:58:21.478Z,39.55
2019-05-19T17:00:51.542Z,39.64
2019-05-19T17:03:23.039Z,39.76
2019-05-19T17:05:55.509Z,39.97
2019-05-19T17:08:27.038Z,40.54
2019-05-19T17:10:58.584Z,40.84
2019-05-19T17:13:30.176Z,41.05
2019-05-19T17:16:02.169Z,41.38
2019-05-19T17:18:34.037Z,41.44
2019-05-19T17:21:05.850Z,41.48
2019-05-19T17:23:38.878Z,41.59
2019-05-19T17:26:12.446Z,41.93
2019-05-19T17:28:59.600Z,41.90
2019-05-19T17:31:19.391Z,42.00
2019-05-19T17:33:56.657Z,42.09
2019-05-19T17:36:28.556Z,42.31
2019-05-19T17:39:00.509Z,42.57
2019-05-19T17:41:33.915Z,42.54
2019-05-19T17:44:06.054Z,42.75
2019-05-19T17:46:39.134Z,42.86
2019-05-19T17:49:10.621Z,42.78
2019-05-19T17:51:42.108Z,43.04
2019-05-19T17:54:13.612Z,42.82
2019-05-19T17:56:47.168Z,43.05
2019-05-19T17:59:18.987Z,43.25
2019-05-19T18:01:51.913Z,43.60
2019-05-19T18:04:23.408Z,43.66
2019-05-19T18:06:54.929Z,43.79
2019-05-19T18:09:26.929Z,44.06
2019-05-19T18:11:58.438Z,44.49
2019-05-19T18:14:30.946Z,44.68
2019-05-19T18:17:02.464Z,45.09
2019-05-19T18:19:33.964Z,45.23
2019-05-19T18:22:06.480Z,45.41
2019-05-19T18:24:39.636Z,45.32
2019-05-19T18:27:11.363Z,45.72
2019-05-19T18:29:46.214Z,45.71
2019-05-19T18:32:17.740Z,45.93
2019-05-19T18:34:49.242Z,46.09
2019-05-19T18:37:22.495Z,46.30
2019-05-19T18:39:54.031Z,46.30
2019-05-19T18:42:25.894Z,46.61
2019-05-19T18:44:57.876Z,47.10
2019-05-19T18:47:29.382Z,47.03
2019-05-19T18:50:01.079Z,47.21
2019-05-19T18:52:33.066Z,47.14
2019-05-19T18:55:07.563Z,47.15
2019-05-19T18:57:39.227Z,47.15
2019-05-19T19:00:12.009Z,47.11
2019-05-19T19:02:47.876Z,46.90
2019-05-19T19:05:18.197Z,46.98
2019-05-19T19:07:52.069Z,46.96
2019-05-19T19:10:23.592Z,46.88
2019-05-19T19:12:55.120Z,46.79
2019-05-19T19:15:26.715Z,46.73
2019-05-19T19:17:58.249Z,46.88
2019-05-19T19:20:29.932Z,47.07
2019-05-19T19:23:01.762Z,47.01
2019-05-19T19:25:33.409Z,47.53
2019-05-19T19:28:04.917Z,47.32
2019-05-19T19:30:36.635Z,47.11
2019-05-19T19:33:09.990Z,47.28
2019-05-19T19:35:43.628Z,47.24
2019-05-19T19:38:15.771Z,47.56
2019-05-19T19:40:48.811Z,47.59
2019-05-19T19:43:21.000Z,47.73
2019-05-19T19:45:52.513Z,47.93
2019-05-19T19:48:24.540Z,48.17
2019-05-19T19:50:57.496Z,48.03
2019-05-19T19:53:31.471Z,47.88
2019-05-19T19:56:05.102Z,48.17
2019-05-19T19:58:36.656Z,48.38
2019-05-19T20:01:10.692Z,48.57
2019-05-19T20:03:42.749Z,48.72
2019-05-19T20:06:17.904Z,48.62
2019-05-19T20:08:51.061Z,48.81
2019-05-19T20:11:25.515Z,49.08
2019-05-19T20:13:58.716Z,49.16
2019-05-19T20:16:32.514Z,49.02
2019-05-19T20:19:04.000Z,49.04
2019-05-19T20:21:36.420Z,48.94
2019-05-19T20:24:07.877Z,49.21
2019-05-19T20:26:39.370Z,49.39
2019-05-19T20:29:16.231Z,49.36
2019-05-19T20:31:47.656Z,49.32
2019-05-19T20:34:19.093Z,49.53
2019-05-19T20:36:50.602Z,49.75
2019-05-19T20:39:22.031Z,50.00
2019-05-19T20:41:53.592Z,50.10
2019-05-19T20:44:25.214Z,50.28
2019-05-19T20:46:56.682Z,49.96
2019-05-19T20:49:28.207Z,50.35
2019-05-19T20:52:01.261Z,50.28
2019-05-19T20:54:33.158Z,50.45
2019-05-19T20:57:06.328Z,50.65
2019-05-19T20:59:38.958Z,51.19
2019-05-19T21:02:10.779Z,51.57
2019-05-19T21:04:43.999Z,51.60
2019-05-19T21:07:15.600Z,51.56
2019-05-19T21:09:47.121Z,52.09
2019-05-19T21:12:18.733Z,52.20
2019-05-19T21:14:50.245Z,52.14
2019-05-19T21:17:21.812Z,52.02
2019-05-19T21:19:54.975Z,51.92
2019-05-19T21:22:26.568Z,51.90
2019-05-19T21:24:58.095Z,51.92
2019-05-19T21:27:29.626Z,52.02
2019-05-19T21:30:01.200Z,52.36
2019-05-19T21:32:32.818Z,52.34
2019-05-19T21:35:06.514Z,52.48
2019-05-19T21:37:38.046Z,52.36
2019-05-19T21:40:09.799Z,52.90
2019-05-19T21:42:41.223Z,52.94
2019-05-19T21:45:12.819Z,53.00
2019-05-19T21:47:44.313Z,52.73
2019-05-19T21:50:15.967Z,52.85
2019-05-19T21:52:47.680Z,52.63
2019-05-19T21:55:19.179Z,52.39
2019-05-19T21:57:50.846Z,52.51
2019-05-19T22:00:24.023Z,52.55
2019-05-19T22:02:57.354Z,52.42
2019-05-19T22:05:28.850Z,52.72
2019-05-19T22:08:04.523Z,52.62
2019-05-19T22:10:36.060Z,52.65
2019-05-19T22:13:07.509Z,52.73
2019-05-19T22:15:39.002Z,52.91
2019-05-19T22:18:10.536Z,52.84
2019-05-19T22:20:42.104Z,52.93
2019-05-19T22:23:13.588Z,52.95
2019-05-19T22:25:45.091Z,52.98
2019-05-19T22:28:16.627Z,53.01
2019-05-19T22:30:48.701Z,53.23
2019-05-19T22:33:20.154Z,53.35
2019-05-19T22:35:51.664Z,53.21
2019-05-19T22:38:23.079Z,53.35
2019-05-19T22:40:54.503Z,53.35
2019-05-19T22:43:27.647Z,53.23
2019-05-19T22:45:59.252Z,53.24
2019-05-19T22:48:31.876Z,53.38
2019-05-19T22:51:03.384Z,53.14
2019-05-19T22:53:35.813Z,53.47
2019-05-19T22:56:07.464Z,53.54
2019-05-19T22:58:41.574Z,53.65
2019-05-19T23:01:12.075Z,53.93
2019-05-19T23:03:43.514Z,54.40
2019-05-19T23:06:14.952Z,54.34
2019-05-19T23:08:46.466Z,54.42
2019-05-19T23:11:17.897Z,54.46
2019-05-19T23:13:49.336Z,54.40
2019-05-19T23:16:20.845Z,54.70
2019-05-19T23:18:52.537Z,54.84
2019-05-19T23:21:23.974Z,54.79
2019-05-19T23:23:55.397Z,54.84
2019-05-19T23:26:26.845Z,54.70
2019-05-19T23:28:58.289Z,55.46
2019-05-19T23:31:29.839Z,55.76
2019-05-19T23:34:01.387Z,56.00
2019-05-19T23:36:32.831Z,55.92
2019-05-19T23:39:06.523Z,56.10
2019-05-19T23:41:39.086Z,56.36
2019-05-19T23:44:12.932Z,56.10
2019-05-19T23:46:46.160Z,56.09
2019-05-19T23:49:18.613Z,55.87
2019-05-19T23:51:50.104Z,55.86
2019-05-19T23:54:22.792Z,56.19
2019-05-19T23:56:54.317Z,55.81
2019-05-19T23:59:27.999Z,55.81
